createdAt,value
2019-05-25T00:01:09.844Z,6.85
2019-05-25T00:03:38.995Z,6.07
2019-05-25T00:06:08.261Z,5.90
2019-05-25T00:08:37.490Z,7.80
2019-05-25T00:11:06.803Z,8.40
2019-05-25T00:13:36.082Z,7.77
2019-05-25T00:16:05.670Z,8.33
2019-05-25T00:18:34.885Z,7.30
2019-05-25T00:21:04.073Z,7.50
2019-05-25T00:23:33.347Z,7.20
2019-05-25T00:26:02.626Z,7.40
2019-05-25T00:28:31.848Z,8.23
2019-05-25T00:31:01.126Z,6.97
2019-05-25T00:33:30.359Z,8.20
2019-05-25T00:35:59.595Z,9.17
2019-05-25T00:38:28.842Z,7.80
2019-05-25T00:40:58.096Z,9.93
2019-05-25T00:43:27.321Z,9.00
2019-05-25T00:45:56.534Z,7.10
2019-05-25T00:48:25.690Z,8.63
2019-05-25T00:50:54.919Z,7.53
2019-05-25T00:53:24.132Z,9.27
2019-05-25T00:55:53.339Z,10.43
2019-05-25T00:58:22.521Z,9.77
2019-05-25T01:00:51.781Z,10.90
2019-05-25T01:03:21.134Z,10.90
2019-05-25T01:05:50.353Z,9.67
2019-05-25T01:08:19.539Z,9.20
2019-05-25T01:10:48.779Z,10.90
2019-05-25T01:13:17.986Z,8.73
2019-05-25T01:15:47.244Z,11.60
2019-05-25T01:18:16.436Z,12.27
2019-05-25T01:20:45.911Z,9.53
2019-05-25T01:23:15.084Z,13.13
2019-05-25T01:25:44.325Z,9.50
2019-05-25T01:28:13.512Z,11.70
2019-05-25T01:30:42.720Z,9.33
2019-05-25T01:33:11.902Z,10.03
2019-05-25T01:35:41.142Z,11.43
2019-05-25T01:38:10.373Z,10.30
2019-05-25T01:40:39.618Z,12.27
2019-05-25T01:43:08.830Z,11.10
2019-05-25T01:45:38.069Z,8.47
2019-05-25T01:48:07.540Z,10.27
2019-05-25T01:50:37.005Z,11.93
2019-05-25T01:53:06.184Z,13.07
2019-05-25T01:55:35.442Z,10.70
2019-05-25T01:58:04.820Z,12.20
2019-05-25T02:00:33.984Z,11.93
2019-05-25T02:03:03.203Z,7.97
2019-05-25T02:05:32.389Z,10.13
2019-05-25T02:08:01.598Z,8.63
2019-05-25T02:10:30.789Z,7.00
2019-05-25T02:13:00.134Z,10.80
2019-05-25T02:15:29.302Z,10.70
2019-05-25T02:17:58.858Z,12.47
2019-05-25T02:20:28.020Z,11.57
2019-05-25T02:22:57.213Z,13.70
2019-05-25T02:25:26.499Z,12.87
2019-05-25T02:27:55.694Z,10.73
2019-05-25T02:30:28.784Z,10.07
2019-05-25T02:32:57.995Z,12.40
2019-05-25T02:35:28.204Z,8.23
2019-05-25T02:37:58.079Z,8.27
2019-05-25T02:40:27.439Z,11.33
2019-05-25T02:42:56.650Z,8.53
2019-05-25T02:45:25.848Z,12.43
2019-05-25T02:47:55.057Z,8.00
2019-05-25T02:50:24.459Z,11.67
2019-05-25T02:52:53.646Z,7.60
2019-05-25T02:55:33.864Z,9.63
2019-05-25T02:57:53.791Z,11.67
2019-05-25T03:00:34.084Z,14.63
2019-05-25T03:03:05.386Z,15.38
2019-05-25T03:05:34.559Z,13.03
2019-05-25T03:08:04.283Z,14.10
2019-05-25T03:10:34.078Z,13.20
2019-05-25T03:13:04.133Z,10.30
2019-05-25T03:15:33.402Z,11.50
2019-05-25T03:18:02.579Z,10.93
2019-05-25T03:20:31.780Z,11.43
2019-05-25T03:23:01.025Z,11.77
2019-05-25T03:25:49.075Z,11.20
2019-05-25T03:28:08.833Z,11.50
2019-05-25T03:30:38.416Z,10.77
2019-05-25T03:33:07.676Z,10.83
2019-05-25T03:35:36.826Z,8.77
2019-05-25T03:38:05.993Z,7.00
2019-05-25T03:40:35.177Z,6.53
2019-05-25T03:43:04.326Z,8.03
2019-05-25T03:45:33.674Z,7.37
2019-05-25T03:48:02.919Z,8.43
2019-05-25T03:50:32.141Z,9.27
2019-05-25T03:53:01.320Z,7.37
2019-05-25T03:55:30.523Z,10.80
2019-05-25T03:58:00.042Z,11.47
2019-05-25T04:00:36.412Z,10.77
2019-05-25T04:03:06.179Z,7.63
2019-05-25T04:05:35.438Z,7.90
2019-05-25T04:08:04.881Z,7.50
2019-05-25T04:10:34.296Z,10.70
2019-05-25T04:13:03.574Z,11.73
2019-05-25T04:15:32.957Z,10.60
2019-05-25T04:18:02.100Z,10.10
2019-05-25T04:20:31.314Z,9.60
2019-05-25T04:23:00.478Z,12.00
2019-05-25T04:25:29.825Z,12.58
2019-05-25T04:27:59.031Z,13.03
2019-05-25T04:30:28.193Z,14.20
2019-05-25T04:32:57.366Z,12.30
2019-05-25T04:35:26.699Z,10.67
2019-05-25T04:37:55.956Z,11.17
2019-05-25T04:40:25.153Z,11.40
2019-05-25T04:42:54.386Z,11.10
2019-05-25T04:45:23.538Z,10.97
2019-05-25T04:47:52.818Z,11.43
2019-05-25T04:50:22.392Z,10.03
2019-05-25T04:52:51.620Z,7.30
2019-05-25T04:55:20.816Z,7.80
2019-05-25T04:57:50.014Z,9.97
2019-05-25T05:00:19.167Z,7.00
2019-05-25T05:02:48.402Z,7.73
2019-05-25T05:05:17.712Z,11.28
2019-05-25T05:07:47.008Z,8.58
2019-05-25T05:10:16.295Z,11.43
2019-05-25T05:12:45.729Z,10.15
2019-05-25T05:15:15.118Z,12.33
2019-05-25T05:17:44.392Z,10.50
2019-05-25T05:20:13.983Z,13.23
2019-05-25T05:22:43.227Z,10.93
2019-05-25T05:25:12.936Z,8.27
2019-05-25T05:27:42.263Z,7.20
2019-05-25T05:30:11.444Z,8.10
2019-05-25T05:32:40.645Z,8.17
2019-05-25T05:35:10.785Z,10.17
2019-05-25T05:37:41.327Z,11.00
2019-05-25T05:40:10.593Z,10.30
2019-05-25T05:42:41.435Z,10.53
2019-05-25T05:45:10.936Z,7.37
2019-05-25T05:47:41.710Z,8.10
2019-05-25T05:50:11.598Z,7.63
2019-05-25T05:52:40.744Z,8.53
2019-05-25T05:55:11.462Z,8.80
2019-05-25T05:57:40.666Z,8.17
2019-05-25T06:00:10.896Z,7.70
2019-05-25T06:02:40.085Z,11.37
2019-05-25T06:05:09.442Z,8.10
2019-05-25T06:07:38.616Z,7.37
2019-05-25T06:10:08.335Z,7.70
2019-05-25T06:12:37.830Z,7.53
2019-05-25T06:15:08.057Z,7.77
2019-05-25T06:17:37.355Z,8.77
2019-05-25T06:20:07.529Z,10.10
2019-05-25T06:22:36.769Z,11.60
2019-05-25T06:25:07.549Z,10.50
2019-05-25T06:27:36.752Z,8.87
2019-05-25T06:30:06.826Z,10.17
2019-05-25T06:32:36.210Z,9.63
2019-05-25T06:35:06.222Z,13.88
2019-05-25T06:37:35.461Z,12.28
2019-05-25T06:40:05.565Z,9.93
2019-05-25T06:42:34.755Z,10.43
2019-05-25T06:45:04.096Z,11.70
2019-05-25T06:47:33.302Z,11.53
2019-05-25T06:50:02.530Z,11.73
2019-05-25T06:52:31.701Z,12.03
2019-05-25T06:55:00.897Z,10.67
2019-05-25T06:57:42.675Z,8.70
2019-05-25T07:00:01.070Z,9.77
2019-05-25T07:02:30.288Z,9.10
2019-05-25T07:04:59.497Z,9.13
2019-05-25T07:07:30.505Z,11.97
2019-05-25T07:09:59.801Z,12.60
2019-05-25T07:12:29.135Z,10.43
2019-05-25T07:14:58.401Z,11.77
2019-05-25T07:17:27.656Z,9.30
2019-05-25T07:19:56.880Z,8.27
2019-05-25T07:22:26.127Z,7.30
2019-05-25T07:24:55.337Z,11.27
2019-05-25T07:27:24.613Z,11.43
2019-05-25T07:29:53.823Z,10.60
2019-05-25T07:32:23.119Z,10.17
2019-05-25T07:34:52.346Z,12.07
2019-05-25T07:37:21.625Z,11.67
2019-05-25T07:39:50.817Z,11.43
2019-05-25T07:42:20.259Z,11.83
2019-05-25T07:44:49.419Z,9.43
2019-05-25T07:47:18.630Z,11.93
2019-05-25T07:49:47.874Z,11.43
2019-05-25T07:52:17.175Z,11.57
2019-05-25T07:54:46.406Z,11.80
2019-05-25T07:57:15.884Z,12.00
2019-05-25T07:59:45.228Z,11.65
2019-05-25T08:02:14.444Z,11.53
2019-05-25T08:04:43.714Z,10.30
2019-05-25T08:07:13.012Z,12.67
2019-05-25T08:09:42.224Z,9.80
2019-05-25T08:12:11.503Z,13.43
2019-05-25T08:14:40.708Z,12.10
2019-05-25T08:17:09.964Z,12.00
2019-05-25T08:19:39.140Z,12.27
2019-05-25T08:22:08.365Z,11.70
2019-05-25T08:24:37.634Z,12.23
2019-05-25T08:27:06.897Z,12.70
2019-05-25T08:29:36.116Z,11.30
2019-05-25T08:32:05.291Z,13.10
2019-05-25T08:34:34.530Z,13.13
2019-05-25T08:37:03.786Z,12.87
2019-05-25T08:39:33.079Z,12.37
2019-05-25T08:42:02.303Z,12.77
2019-05-25T08:44:31.536Z,12.40
2019-05-25T08:47:00.743Z,11.07
2019-05-25T08:49:29.983Z,11.40
2019-05-25T08:51:59.185Z,12.00
2019-05-25T08:54:28.426Z,12.07
2019-05-25T08:56:57.685Z,12.87
2019-05-25T08:59:26.925Z,11.90
2019-05-25T09:01:56.143Z,10.80
2019-05-25T09:04:25.787Z,11.33
2019-05-25T09:06:55.299Z,10.28
2019-05-25T09:09:24.503Z,10.18
2019-05-25T09:11:53.716Z,11.35
2019-05-25T09:14:22.927Z,10.30
2019-05-25T09:16:52.155Z,11.25
2019-05-25T09:19:21.361Z,11.33
2019-05-25T09:22:02.062Z,10.70
2019-05-25T09:24:21.644Z,9.20
2019-05-25T09:26:51.936Z,9.70
2019-05-25T09:29:21.199Z,7.87
2019-05-25T09:31:50.404Z,9.28
2019-05-25T09:34:19.667Z,9.83
2019-05-25T09:36:49.015Z,10.88
2019-05-25T09:39:18.217Z,10.00
2019-05-25T09:41:47.497Z,9.90
2019-05-25T09:44:16.698Z,11.40
2019-05-25T09:46:45.938Z,10.30
2019-05-25T09:49:15.166Z,8.60
2019-05-25T09:51:44.373Z,9.85
2019-05-25T09:54:13.566Z,9.73
2019-05-25T09:56:42.803Z,9.45
2019-05-25T09:59:20.161Z,10.48
2019-05-25T10:01:42.972Z,10.13
2019-05-25T10:04:12.198Z,6.08
2019-05-25T10:06:41.412Z,8.88
2019-05-25T10:09:10.626Z,6.75
2019-05-25T10:11:39.858Z,9.80
2019-05-25T10:14:09.114Z,9.25
2019-05-25T10:16:38.344Z,9.55
2019-05-25T10:19:07.556Z,8.95
2019-05-25T10:21:36.856Z,9.45
2019-05-25T10:24:06.059Z,10.00
2019-05-25T10:26:35.287Z,8.08
2019-05-25T10:29:04.461Z,8.18
2019-05-25T10:31:33.781Z,10.63
2019-05-25T10:34:03.083Z,10.25
2019-05-25T10:36:32.361Z,9.10
2019-05-25T10:39:01.556Z,10.20
2019-05-25T10:41:30.789Z,10.20
2019-05-25T10:43:59.999Z,11.73
2019-05-25T10:46:29.262Z,8.00
2019-05-25T10:48:58.489Z,7.47
2019-05-25T10:51:27.747Z,8.35
2019-05-25T10:53:57.015Z,7.40
2019-05-25T10:56:26.288Z,9.98
2019-05-25T10:58:55.498Z,10.72
2019-05-25T11:01:24.747Z,10.50
2019-05-25T11:03:54.005Z,18.00
2019-05-25T11:06:23.217Z,21.37
2019-05-25T11:08:52.696Z,10.78
2019-05-25T11:11:22.070Z,9.63
2019-05-25T11:13:51.374Z,8.95
2019-05-25T11:16:20.554Z,10.10
2019-05-25T11:18:49.819Z,10.30
2019-05-25T11:21:19.107Z,10.95
2019-05-25T11:23:48.375Z,9.40
2019-05-25T11:26:17.625Z,10.88
2019-05-25T11:28:46.873Z,10.23
2019-05-25T11:31:16.085Z,11.78
2019-05-25T11:33:45.309Z,10.93
2019-05-25T11:36:14.538Z,10.18
2019-05-25T11:38:43.789Z,7.50
2019-05-25T11:41:13.045Z,5.87
2019-05-25T11:43:42.229Z,5.78
2019-05-25T11:46:11.456Z,5.80
2019-05-25T11:48:40.650Z,5.45
2019-05-25T11:51:09.837Z,4.47
2019-05-25T11:53:39.095Z,4.85
2019-05-25T11:56:08.298Z,4.42
2019-05-25T11:58:46.943Z,4.58
2019-05-25T12:01:08.492Z,4.28
2019-05-25T12:03:37.726Z,5.95
2019-05-25T12:06:07.119Z,5.10
2019-05-25T12:08:36.357Z,7.35
2019-05-25T12:11:05.616Z,6.47
2019-05-25T12:13:34.809Z,6.33
2019-05-25T12:16:04.054Z,5.80
2019-05-25T12:18:33.318Z,7.40
2019-05-25T12:21:02.570Z,6.83
2019-05-25T12:23:31.855Z,6.12
2019-05-25T12:26:01.130Z,9.30
2019-05-25T12:28:30.291Z,5.60
2019-05-25T12:30:59.554Z,9.15
2019-05-25T12:33:28.765Z,11.12
2019-05-25T12:35:58.003Z,8.98
2019-05-25T12:38:27.247Z,9.53
2019-05-25T12:40:56.473Z,11.08
2019-05-25T12:43:25.660Z,9.20
2019-05-25T12:45:54.865Z,8.50
2019-05-25T12:48:24.064Z,8.80
2019-05-25T12:50:53.336Z,8.70
2019-05-25T12:53:22.582Z,7.70
2019-05-25T12:55:51.837Z,6.30
2019-05-25T12:58:23.707Z,4.17
2019-05-25T13:00:56.081Z,3.00
2019-05-25T13:03:28.104Z,2.90
2019-05-25T13:18:16.749Z,3.77
2019-05-25T13:20:45.934Z,4.90
2019-05-25T13:23:15.220Z,4.78
2019-05-25T13:25:44.432Z,4.67
2019-05-25T13:28:13.687Z,5.28
2019-05-25T13:30:42.935Z,5.35
2019-05-25T13:33:12.167Z,5.03
2019-05-25T13:35:41.393Z,5.78
2019-05-25T13:38:10.634Z,5.28
2019-05-25T13:40:39.854Z,6.80
2019-05-25T14:00:27.341Z,3.20
2019-05-25T14:02:56.958Z,3.60
2019-05-25T14:05:26.222Z,3.58
2019-05-25T14:07:55.531Z,3.40
2019-05-25T14:10:24.751Z,4.42
2019-05-25T14:12:53.998Z,3.42
2019-05-25T14:15:23.213Z,4.33
2019-05-25T14:17:52.595Z,5.20
2019-05-25T14:20:22.047Z,4.78
2019-05-25T14:22:51.297Z,6.00
2019-05-25T14:25:20.540Z,6.12
2019-05-25T14:27:49.774Z,6.05
2019-05-25T14:30:19.954Z,6.55
2019-05-25T14:32:49.184Z,7.40
2019-05-25T14:35:18.450Z,7.08
2019-05-25T14:37:47.712Z,5.37
2019-05-25T14:40:17.330Z,6.12
2019-05-25T14:42:46.546Z,5.50
2019-05-25T14:45:15.841Z,4.03
2019-05-25T14:47:45.097Z,3.10
2019-05-25T14:50:14.643Z,3.35
2019-05-25T14:52:43.896Z,4.10
2019-05-25T14:55:13.410Z,4.50
2019-05-25T14:57:42.657Z,4.67
2019-05-25T15:00:13.262Z,5.03
2019-05-25T15:02:42.649Z,4.83
2019-05-25T15:05:12.168Z,3.87
2019-05-25T15:07:41.359Z,4.08
2019-05-25T15:10:10.838Z,5.30
2019-05-25T15:12:40.006Z,5.05
2019-05-25T15:17:38.083Z,5.53
2019-05-25T15:20:07.471Z,4.33
2019-05-25T15:22:36.721Z,4.33
2019-05-25T15:25:06.516Z,6.03
2019-05-25T15:27:35.927Z,5.72
2019-05-25T15:30:07.092Z,6.30
2019-05-25T15:32:36.412Z,5.17
2019-05-25T15:35:06.376Z,6.83
2019-05-25T15:37:35.705Z,5.85
2019-05-25T15:40:05.314Z,5.43
2019-05-25T15:42:34.512Z,4.65
2019-05-25T15:45:03.763Z,7.53
2019-05-25T15:47:33.039Z,9.13
2019-05-25T15:50:02.429Z,9.45
2019-05-25T15:52:31.760Z,7.87
2019-05-25T15:55:01.147Z,8.90
2019-05-25T15:57:30.469Z,8.98
2019-05-25T15:59:59.762Z,6.70
2019-05-25T16:02:36.562Z,7.35
2019-05-25T16:05:00.167Z,6.25
2019-05-25T16:07:31.226Z,6.87
2019-05-25T16:10:00.487Z,6.05
2019-05-25T16:12:29.768Z,6.37
2019-05-25T16:14:58.921Z,5.53
2019-05-25T16:17:28.156Z,5.70
2019-05-25T16:19:57.385Z,6.97
2019-05-25T16:22:26.619Z,6.47
2019-05-25T16:24:55.906Z,8.45
2019-05-25T16:27:25.204Z,7.03
2019-05-25T16:29:54.409Z,7.17
2019-05-25T16:32:23.708Z,6.30
2019-05-25T16:34:52.887Z,5.62
2019-05-25T16:37:22.493Z,4.90
2019-05-25T16:39:52.119Z,4.70
2019-05-25T16:42:21.755Z,4.37
2019-05-25T16:44:51.071Z,3.70
2019-05-25T16:47:20.267Z,3.40
2019-05-25T16:49:49.492Z,3.20
2019-05-25T16:52:19.182Z,3.20
2019-05-25T16:54:48.421Z,4.08
2019-05-25T16:57:17.756Z,4.40
2019-05-25T16:59:46.926Z,4.70
2019-05-25T17:02:16.209Z,5.45
2019-05-25T17:04:45.460Z,5.03
2019-05-25T17:07:14.710Z,6.08
2019-05-25T17:09:43.966Z,6.05
2019-05-25T17:12:13.204Z,4.80
2019-05-25T17:14:42.538Z,5.55
2019-05-25T17:17:12.614Z,5.62
2019-05-25T17:19:41.868Z,5.58
2019-05-25T17:22:11.063Z,5.97
2019-05-25T17:24:40.383Z,6.62
2019-05-25T17:27:09.660Z,6.30
2019-05-25T17:29:38.967Z,5.40
2019-05-25T17:32:08.613Z,5.43
2019-05-25T17:34:38.332Z,5.10
2019-05-25T17:37:07.519Z,5.00
2019-05-25T17:39:36.857Z,4.67
2019-05-25T17:42:06.024Z,4.07
2019-05-25T17:44:35.310Z,3.77
2019-05-25T17:47:04.835Z,4.17
2019-05-25T17:49:34.244Z,4.15
2019-05-25T17:52:03.502Z,4.07
2019-05-25T17:54:32.738Z,4.50
2019-05-25T17:57:01.989Z,3.90
2019-05-25T17:59:31.240Z,3.90
2019-05-25T18:02:00.488Z,3.70
2019-05-25T18:04:29.709Z,3.98
2019-05-25T18:06:58.991Z,3.90
2019-05-25T18:09:28.294Z,3.50
2019-05-25T18:11:57.541Z,3.50
2019-05-25T18:14:26.740Z,3.75
2019-05-25T18:16:55.999Z,3.45
2019-05-25T18:19:25.199Z,3.03
2019-05-25T18:21:54.385Z,3.42
2019-05-25T18:24:23.578Z,3.60
2019-05-25T18:26:52.836Z,3.45
2019-05-25T18:29:23.935Z,3.08
2019-05-25T18:31:53.019Z,3.10
2019-05-25T18:34:22.705Z,3.40
2019-05-25T18:36:52.138Z,3.40
2019-05-25T18:39:21.493Z,3.25
2019-05-25T18:41:50.835Z,3.33
2019-05-25T18:44:20.129Z,3.17
2019-05-25T18:46:49.370Z,4.15
2019-05-25T18:49:18.666Z,3.87
2019-05-25T18:51:47.915Z,4.65
2019-05-25T18:54:17.166Z,3.93
2019-05-25T18:56:46.443Z,5.35
2019-05-25T18:59:15.652Z,4.70
2019-05-25T19:01:44.899Z,4.92
2019-05-25T19:04:14.204Z,7.12
2019-05-25T19:06:43.635Z,4.80
2019-05-25T19:09:12.873Z,4.50
2019-05-25T19:11:42.448Z,5.60
2019-05-25T19:14:11.760Z,4.08
2019-05-25T19:16:41.007Z,3.83
2019-05-25T19:19:10.284Z,4.10
2019-05-25T19:21:39.512Z,4.47
2019-05-25T19:24:08.777Z,4.50
2019-05-25T19:26:37.967Z,5.40
2019-05-25T19:29:07.193Z,4.00
2019-05-25T19:31:36.446Z,4.37
2019-05-25T19:34:05.608Z,4.45
2019-05-25T19:36:34.883Z,4.33
2019-05-25T19:39:05.855Z,4.47
2019-05-25T19:41:35.119Z,4.47
2019-05-25T19:44:04.449Z,5.12
2019-05-25T19:46:33.793Z,3.43
2019-05-25T19:51:31.283Z,5.10
2019-05-25T19:54:00.612Z,6.00
2019-05-25T19:56:29.862Z,3.90
2019-05-25T19:58:59.092Z,4.17
2019-05-25T20:01:28.338Z,5.10
2019-05-25T20:03:57.716Z,6.40
2019-05-25T20:06:27.234Z,6.05
2019-05-25T20:08:56.479Z,5.80
2019-05-25T20:11:25.812Z,5.80
2019-05-25T20:13:55.028Z,7.58
2019-05-25T20:16:25.215Z,7.45
2019-05-25T20:18:54.502Z,7.60
2019-05-25T20:21:23.746Z,8.38
2019-05-25T20:23:53.070Z,9.00
2019-05-25T20:26:22.349Z,8.68
2019-05-25T20:28:51.668Z,10.38
2019-05-25T20:31:21.053Z,10.60
2019-05-25T20:33:50.486Z,8.10
2019-05-25T20:36:19.919Z,8.60
2019-05-25T20:38:49.191Z,7.67
2019-05-25T20:41:18.451Z,8.23
2019-05-25T20:43:47.607Z,6.37
2019-05-25T20:46:16.885Z,6.45
2019-05-25T20:48:46.145Z,5.37
2019-05-25T20:51:15.402Z,8.97
2019-05-25T20:53:44.655Z,8.88
2019-05-25T20:56:13.948Z,11.00
2019-05-25T20:58:43.178Z,14.60
2019-05-25T21:01:12.602Z,12.33
2019-05-25T21:03:41.843Z,11.17
2019-05-25T21:06:11.104Z,7.77
2019-05-25T21:08:40.653Z,7.80
2019-05-25T21:11:09.995Z,12.20
2019-05-25T21:13:39.207Z,13.63
2019-05-25T21:16:08.452Z,11.63
2019-05-25T21:18:37.706Z,10.28
2019-05-25T21:21:06.950Z,6.78
2019-05-25T21:23:36.163Z,9.50
2019-05-25T21:26:05.413Z,9.13
2019-05-25T21:28:34.635Z,9.75
2019-05-25T21:31:03.849Z,9.70
2019-05-25T21:33:33.095Z,11.50
2019-05-25T21:36:08.179Z,10.50
2019-05-25T21:38:33.354Z,13.32
2019-05-25T21:41:02.601Z,11.30
2019-05-25T21:43:31.863Z,7.17
2019-05-25T21:46:01.120Z,7.10
2019-05-25T21:48:30.409Z,7.33
2019-05-25T21:50:59.664Z,9.33
2019-05-25T21:53:28.963Z,16.30
2019-05-25T21:55:58.201Z,13.35
2019-05-25T21:58:27.520Z,8.50
2019-05-25T22:00:56.962Z,7.78
2019-05-25T22:03:26.568Z,7.33
2019-05-25T22:05:55.855Z,12.37
2019-05-25T22:08:25.043Z,15.78
2019-05-25T22:10:54.226Z,9.95
2019-05-25T22:13:28.430Z,16.87
2019-05-25T22:15:54.675Z,9.48
2019-05-25T22:18:23.943Z,18.55
2019-05-25T22:20:53.169Z,14.38
2019-05-25T22:23:22.528Z,7.10
2019-05-25T22:25:51.747Z,13.00
2019-05-25T22:28:20.948Z,17.15
2019-05-25T22:30:50.163Z,11.77
2019-05-25T22:33:19.844Z,14.30
2019-05-25T22:35:49.344Z,9.97
2019-05-25T22:38:18.629Z,11.20
2019-05-25T22:40:47.880Z,14.23
2019-05-25T22:43:17.060Z,12.93
2019-05-25T22:45:46.284Z,25.37
2019-05-25T22:48:15.504Z,16.23
2019-05-25T22:50:44.794Z,21.55
2019-05-25T22:53:14.026Z,25.62
2019-05-25T22:55:43.297Z,20.65
2019-05-25T22:58:12.540Z,30.23
2019-05-25T23:00:41.761Z,19.10
2019-05-25T23:03:11.024Z,19.20
2019-05-25T23:05:40.252Z,14.20
2019-05-25T23:08:09.470Z,12.82
2019-05-25T23:10:38.748Z,17.62
2019-05-25T23:13:07.962Z,13.38
2019-05-25T23:15:37.160Z,16.25
2019-05-25T23:18:06.396Z,19.00
2019-05-25T23:20:36.644Z,13.10
2019-05-25T23:23:06.066Z,16.37
2019-05-25T23:25:35.263Z,16.32
2019-05-25T23:28:04.473Z,27.37
2019-05-25T23:30:33.649Z,22.37
2019-05-25T23:33:02.924Z,23.18
2019-05-25T23:35:32.133Z,20.12
2019-05-25T23:38:03.717Z,17.00
2019-05-25T23:40:32.288Z,22.35
2019-05-25T23:43:01.554Z,16.75
2019-05-25T23:45:30.703Z,15.78
2019-05-25T23:47:59.889Z,19.42
2019-05-25T23:50:29.078Z,21.42
2019-05-25T23:52:58.324Z,16.20
2019-05-25T23:55:27.579Z,17.80
2019-05-25T23:57:56.800Z,10.75
